Time;durP1;ratioP1;P1;durP2;ratioP2;P2;SDS_P1;SDS_P2;PMS_P1;PMS_P2;Temp;Humidity;BMP_temperature;BMP_pressure;BME280_temperature;BME280_humidity;BME280_pressure;Samples;Min_cycle;Max_cycle;Signal;HPM_P1;HPM_P2
2021/10/29 00:00:54;;;;;;;7.10;4.53;;;15.30;76.70;;;;;;5078306;28;20063;-75
2021/10/29 00:03:20;;;;;;;8.13;3.95;;;15.30;76.10;;;;;;5078484;28;20493;-76
2021/10/29 00:05:46;;;;;;;8.32;4.10;;;15.30;76.50;;;;;;5078720;28;20501;-77
2021/10/29 00:08:12;;;;;;;6.70;3.97;;;15.20;76.40;;;;;;5077254;28;20111;-76
2021/10/29 00:10:37;;;;;;;4.88;3.65;;;15.20;76.40;;;;;;5056104;28;20025;-75
2021/10/29 00:13:03;;;;;;;6.63;4.18;;;15.20;76.20;;;;;;5077945;28;20095;-76
2021/10/29 00:15:29;;;;;;;7.20;4.07;;;15.30;76.20;;;;;;5078240;28;20031;-77
2021/10/29 00:17:56;;;;;;;4.85;3.95;;;15.20;75.90;;;;;;5077746;28;20119;-76
2021/10/29 00:20:22;;;;;;;7.68;4.40;;;15.20;76.40;;;;;;5074077;28;20038;-77
2021/10/29 00:22:48;;;;;;;7.75;3.97;;;15.20;76.40;;;;;;5071284;28;20040;-77
2021/10/29 00:25:14;;;;;;;6.57;4.20;;;15.20;76.20;;;;;;5071123;28;20027;-77
2021/10/29 00:27:40;;;;;;;5.43;3.35;;;15.20;76.30;;;;;;5078164;28;20460;-77
2021/10/29 00:30:07;;;;;;;6.03;4.18;;;15.20;76.50;;;;;;5078213;28;20111;-76
2021/10/29 00:32:33;;;;;;;5.97;4.03;;;15.30;76.20;;;;;;5077311;28;20396;-76
2021/10/29 00:34:58;;;;;;;5.40;3.40;;;15.20;75.80;;;;;;5074737;28;20511;-77
2021/10/29 00:37:24;;;;;;;6.20;4.00;;;15.20;75.70;;;;;;5075297;28;20036;-78
2021/10/29 00:39:50;;;;;;;5.90;3.53;;;15.20;75.60;;;;;;5077537;28;20560;-77
2021/10/29 00:42:16;;;;;;;4.93;3.50;;;15.20;75.80;;;;;;5085682;28;20109;-77
2021/10/29 00:44:42;;;;;;;5.75;3.75;;;15.20;75.90;;;;;;5085661;28;20110;-77
2021/10/29 00:47:07;;;;;;;6.10;3.38;;;15.30;76.10;;;;;;5074207;28;20037;-76
2021/10/29 00:49:33;;;;;;;6.57;3.60;;;15.30;75.60;;;;;;5070954;28;20024;-77
2021/10/29 00:51:59;;;;;;;5.18;3.58;;;15.30;75.80;;;;;;5076811;28;20037;-75
2021/10/29 00:54:25;;;;;;;3.83;3.03;;;15.40;75.60;;;;;;5077219;28;20025;-77
2021/10/29 00:56:51;;;;;;;5.30;3.58;;;15.40;75.80;;;;;;5077561;28;20059;-76
2021/10/29 00:59:18;;;;;;;7.13;3.13;;;15.40;75.30;;;;;;5058825;28;20054;-76
2021/10/29 01:01:45;;;;;;;5.00;3.40;;;15.40;75.20;;;;;;5072218;28;20028;-76
2021/10/29 01:04:11;;;;;;;4.68;3.17;;;15.40;75.30;;;;;;5072219;28;20060;-76
2021/10/29 01:06:37;;;;;;;7.18;3.97;;;15.40;75.60;;;;;;5077302;28;20071;-76
2021/10/29 01:09:03;;;;;;;5.97;3.00;;;15.50;75.00;;;;;;5081315;28;20071;-76
2021/10/29 01:11:30;;;;;;;4.55;3.35;;;15.40;75.50;;;;;;5077138;28;20546;-76
2021/10/29 01:13:56;;;;;;;5.68;3.20;;;15.50;75.30;;;;;;5088347;28;20029;-76
2021/10/29 01:16:22;;;;;;;4.60;3.22;;;15.40;74.80;;;;;;5074322;28;20027;-77
2021/10/29 01:18:48;;;;;;;6.75;3.10;;;15.40;74.90;;;;;;5077181;28;20063;-77
2021/10/29 01:21:15;;;;;;;3.63;2.80;;;15.40;75.30;;;;;;5079776;28;20032;-76
2021/10/29 01:23:41;;;;;;;5.03;3.10;;;15.50;74.80;;;;;;5085027;28;20028;-77
2021/10/29 01:26:16;;;;;;;4.13;3.25;;;15.50;74.90;;;;;;5087738;28;20204;-76
2021/10/29 01:28:42;;;;;;;5.22;2.90;;;15.50;74.40;;;;;;5072432;28;20028;-76
2021/10/29 01:31:07;;;;;;;5.47;3.08;;;15.50;74.70;;;;;;5075648;28;20029;-76
2021/10/29 01:33:34;;;;;;;5.88;3.08;;;15.60;74.40;;;;;;5077122;28;20073;-74
2021/10/29 01:36:00;;;;;;;5.40;3.35;;;15.60;74.90;;;;;;5076650;28;20032;-74
2021/10/29 01:38:37;;;;;;;5.22;3.15;;;15.60;74.50;;;;;;5076486;28;20023;-76
2021/10/29 01:41:04;;;;;;;4.88;3.28;;;15.60;74.30;;;;;;5074142;28;20075;-76
2021/10/29 01:43:30;;;;;;;6.28;3.40;;;15.50;74.80;;;;;;5074122;28;20485;-77
2021/10/29 01:45:56;;;;;;;5.63;3.67;;;15.50;75.00;;;;;;5087005;28;20031;-76
2021/10/29 01:48:23;;;;;;;5.88;3.80;;;15.50;75.30;;;;;;5065697;28;20039;-76
2021/10/29 01:50:49;;;;;;;5.18;3.70;;;15.50;74.90;;;;;;5083525;28;20233;-76
2021/10/29 01:53:15;;;;;;;6.85;3.20;;;15.40;76.10;;;;;;5054074;28;20455;-76
2021/10/29 01:55:41;;;;;;;6.20;3.40;;;15.30;75.80;;;;;;5088522;28;20052;-76
2021/10/29 01:58:07;;;;;;;6.00;3.53;;;15.30;76.40;;;;;;5075885;28;20161;-78
2021/10/29 02:00:32;;;;;;;4.25;3.22;;;15.20;76.70;;;;;;5057905;28;20393;-77
2021/10/29 02:02:58;;;;;;;5.50;3.42;;;15.20;77.10;;;;;;5076087;28;20036;-76
2021/10/29 02:05:24;;;;;;;7.32;4.00;;;15.20;77.30;;;;;;5076270;28;20012;-76
2021/10/29 02:07:50;;;;;;;6.07;3.70;;;15.10;77.70;;;;;;5072434;28;20032;-76
2021/10/29 02:10:16;;;;;;;5.82;4.20;;;15.00;77.70;;;;;;5074613;28;20083;-76
2021/10/29 02:12:42;;;;;;;5.40;3.92;;;15.00;78.20;;;;;;5085036;28;20489;-76
2021/10/29 02:15:08;;;;;;;7.97;4.18;;;15.00;77.70;;;;;;5080474;28;20469;-76
2021/10/29 02:17:34;;;;;;;6.63;4.15;;;15.00;78.90;;;;;;5076139;28;20107;-77
2021/10/29 02:20:01;;;;;;;8.05;4.03;;;14.90;78.30;;;;;;5072556;28;20107;-77
2021/10/29 02:22:26;;;;;;;5.13;4.13;;;14.90;79.70;;;;;;5087527;28;20055;-77
2021/10/29 02:24:52;;;;;;;6.50;3.90;;;14.80;79.60;;;;;;5085238;28;20048;-77
2021/10/29 02:27:17;;;;;;;6.28;4.00;;;14.90;80.20;;;;;;5079239;28;20119;-77
2021/10/29 02:29:43;;;;;;;9.45;4.78;;;14.90;80.00;;;;;;5075527;28;20489;-76
2021/10/29 02:32:09;;;;;;;5.80;3.90;;;14.80;79.80;;;;;;5077586;28;20048;-74
2021/10/29 02:34:35;;;;;;;6.20;4.15;;;14.80;79.90;;;;;;5076734;28;20408;-76
2021/10/29 02:37:01;;;;;;;7.22;4.30;;;14.70;79.30;;;;;;5079712;28;20489;-76
2021/10/29 02:39:26;;;;;;;6.18;3.58;;;14.60;80.60;;;;;;5079716;28;20528;-77
2021/10/29 02:41:52;;;;;;;5.78;3.90;;;14.70;81.20;;;;;;5079875;28;20501;-77
2021/10/29 02:44:18;;;;;;;8.23;3.90;;;14.70;81.70;;;;;;5079454;28;20032;-78
2021/10/29 02:46:43;;;;;;;8.52;4.18;;;14.70;80.50;;;;;;5089833;28;20020;-78
2021/10/29 02:49:09;;;;;;;5.97;3.90;;;14.60;80.20;;;;;;5079594;28;20029;-78
2021/10/29 02:51:35;;;;;;;6.28;4.00;;;14.70;81.30;;;;;;5069398;28;20077;-77
2021/10/29 02:54:01;;;;;;;6.53;4.03;;;14.70;81.40;;;;;;5068505;28;20058;-78
2021/10/29 02:56:27;;;;;;;6.97;3.70;;;14.60;81.80;;;;;;5089888;28;20024;-77
2021/10/29 02:58:52;;;;;;;7.20;3.65;;;14.50;82.00;;;;;;5075920;28;20028;-76
2021/10/29 03:01:18;;;;;;;4.95;3.80;;;14.60;81.80;;;;;;5077881;28;20029;-76
2021/10/29 03:03:44;;;;;;;6.15;3.80;;;14.60;83.00;;;;;;5079600;28;20409;-76
2021/10/29 03:06:10;;;;;;;8.40;4.10;;;14.50;83.30;;;;;;5079230;28;20025;-76
2021/10/29 03:08:35;;;;;;;5.80;3.85;;;14.60;83.00;;;;;;5079260;28;20028;-75
2021/10/29 03:11:01;;;;;;;5.25;3.92;;;14.60;83.80;;;;;;5076961;28;20028;-76
2021/10/29 03:13:27;;;;;;;5.40;3.50;;;14.60;83.80;;;;;;5076244;28;20081;-77
2021/10/29 03:15:53;;;;;;;6.80;3.90;;;14.60;83.00;;;;;;5079140;28;20101;-75
2021/10/29 03:18:20;;;;;;;6.38;3.75;;;14.60;82.50;;;;;;5079051;28;20033;-76
2021/10/29 03:20:47;;;;;;;5.18;3.97;;;14.60;82.70;;;;;;5079178;28;20510;-76
2021/10/29 03:23:15;;;;;;;6.18;4.47;;;14.60;83.00;;;;;;5091039;28;20040;-77
2021/10/29 03:25:42;;;;;;;7.78;3.60;;;14.60;82.80;;;;;;5087344;28;20017;-76
2021/10/29 03:28:08;;;;;;;6.25;3.40;;;14.70;83.00;;;;;;5078122;28;20040;-76
2021/10/29 03:30:34;;;;;;;5.57;3.45;;;14.70;82.30;;;;;;5078899;28;20062;-77
2021/10/29 03:33:00;;;;;;;6.88;3.47;;;14.80;82.80;;;;;;5078862;28;20123;-76
2021/10/29 03:35:26;;;;;;;6.05;3.83;;;14.80;82.90;;;;;;5078714;28;20457;-73
2021/10/29 03:40:35;;;;;;;7.75;3.53;;;14.80;82.50;;;;;;5076645;28;20070;-77
2021/10/29 03:45:54;;;;;;;6.88;3.53;;;14.80;83.80;;;;;;5087857;28;20512;-76
2021/10/29 03:48:27;;;;;;;6.93;4.10;;;14.70;83.50;;;;;;5081383;28;20473;-76
2021/10/29 03:51:03;;;;;;;9.40;4.70;;;14.80;83.70;;;;;;5078755;28;20024;-76
2021/10/29 03:56:00;;;;;;;9.95;4.03;;;14.80;83.00;;;;;;5075681;28;20033;-74
2021/10/29 03:58:25;;;;;;;6.75;3.60;;;14.80;83.10;;;;;;5076339;28;20032;-74
2021/10/29 04:00:52;;;;;;;8.27;3.88;;;14.80;82.50;;;;;;5078313;28;20025;-77
2021/10/29 04:03:18;;;;;;;6.95;3.90;;;14.80;83.30;;;;;;5060311;28;20040;-77
2021/10/29 04:05:43;;;;;;;6.80;3.95;;;14.80;83.30;;;;;;5078336;28;20417;-77
2021/10/29 04:08:10;;;;;;;7.40;3.42;;;14.80;83.80;;;;;;5075736;28;20043;-77
2021/10/29 04:10:40;;;;;;;7.78;3.80;;;15.00;82.40;;;;;;5090161;28;20032;-76
2021/10/29 04:13:09;;;;;;;7.80;3.65;;;14.90;83.30;;;;;;5077490;28;20025;-77
2021/10/29 04:15:37;;;;;;;7.50;3.85;;;15.00;83.00;;;;;;5078082;28;20021;-77
2021/10/29 04:18:03;;;;;;;6.25;3.28;;;15.00;83.50;;;;;;5078218;28;20031;-74
2021/10/29 04:20:29;;;;;;;7.20;3.38;;;15.00;83.20;;;;;;5060526;28;20091;-76
2021/10/29 04:22:55;;;;;;;7.50;3.80;;;15.00;83.20;;;;;;5074671;28;20100;-76
2021/10/29 04:25:21;;;;;;;8.05;3.80;;;15.10;82.70;;;;;;5087904;28;20066;-76
2021/10/29 04:28:00;;;;;;;6.35;3.63;;;15.10;83.10;;;;;;5078584;28;20021;-76
2021/10/29 04:30:29;;;;;;;7.07;3.83;;;15.00;82.60;;;;;;5078402;28;20024;-76
2021/10/29 04:32:56;;;;;;;7.30;4.28;;;15.00;83.00;;;;;;5078294;28;20032;-77
2021/10/29 04:35:22;;;;;;;7.38;3.75;;;15.00;84.60;;;;;;5078273;28;20036;-76
2021/10/29 04:37:48;;;;;;;9.20;4.03;;;15.00;83.60;;;;;;5074135;28;20024;-75
2021/10/29 04:40:14;;;;;;;7.93;3.80;;;15.00;85.40;;;;;;5077199;28;20028;-76
2021/10/29 04:42:40;;;;;;;8.50;3.53;;;14.90;84.80;;;;;;5066766;28;20457;-75
2021/10/29 04:45:07;;;;;;;7.15;3.55;;;14.80;85.30;;;;;;5082884;28;20024;-76
2021/10/29 04:47:33;;;;;;;7.38;4.28;;;14.70;84.90;;;;;;5078016;28;20023;-76
2021/10/29 04:50:00;;;;;;;6.10;3.85;;;14.70;86.00;;;;;;5075616;28;20074;-76
2021/10/29 04:52:25;;;;;;;7.13;3.70;;;14.70;86.60;;;;;;5075429;28;20028;-76
2021/10/29 04:54:51;;;;;;;7.30;4.03;;;14.70;85.80;;;;;;5077371;28;20021;-76
2021/10/29 04:57:17;;;;;;;8.60;3.83;;;14.70;86.60;;;;;;5078024;28;20485;-75
2021/10/29 04:59:42;;;;;;;10.23;3.97;;;14.60;86.70;;;;;;5077761;28;20374;-75
2021/10/29 05:02:08;;;;;;;7.55;3.83;;;14.60;85.80;;;;;;5076593;28;20063;-75
2021/10/29 05:04:34;;;;;;;12.20;4.10;;;14.60;86.60;;;;;;5074425;28;20068;-76
2021/10/29 05:07:00;;;;;;;6.30;3.88;;;14.60;86.80;;;;;;5077042;28;20562;-76
2021/10/29 05:09:25;;;;;;;7.07;3.80;;;14.60;86.10;;;;;;5077467;28;20041;-76
2021/10/29 05:11:51;;;;;;;7.75;4.57;;;14.60;86.20;;;;;;5077523;28;20021;-76
2021/10/29 05:14:16;;;;;;;8.30;3.75;;;14.60;87.60;;;;;;5077350;28;20373;-76
2021/10/29 05:16:42;;;;;;;7.25;3.80;;;14.50;86.40;;;;;;5072917;28;20057;-75
2021/10/29 05:19:08;;;;;;;9.13;4.22;;;14.50;88.10;;;;;;5076632;28;20039;-76
2021/10/29 05:21:33;;;;;;;9.73;4.32;;;14.50;87.90;;;;;;5077095;28;20025;-76
2021/10/29 05:23:59;;;;;;;9.48;4.03;;;14.50;88.50;;;;;;5078554;28;20055;-75
2021/10/29 05:26:25;;;;;;;8.23;3.97;;;14.60;87.40;;;;;;5086021;28;20098;-76
2021/10/29 05:28:50;;;;;;;8.20;3.70;;;14.50;87.30;;;;;;5070778;28;20036;-76
2021/10/29 05:31:16;;;;;;;11.15;4.00;;;14.60;87.60;;;;;;5076013;28;20485;-76
2021/10/29 05:33:42;;;;;;;9.82;3.80;;;14.60;94.20;;;;;;5077551;28;20032;-77
2021/10/29 05:36:08;;;;;;;8.23;3.53;;;14.30;93.50;;;;;;5059121;28;20024;-77
2021/10/29 05:38:34;;;;;;;6.82;3.72;;;14.30;93.50;;;;;;5076552;28;20036;-76
2021/10/29 05:41:01;;;;;;;4.50;3.08;;;14.20;92.60;;;;;;5056642;28;20036;-76
2021/10/29 05:43:27;;;;;;;4.88;2.55;;;14.30;92.50;;;;;;5074555;28;20032;-76
2021/10/29 05:45:53;;;;;;;4.53;2.08;;;14.30;92.40;;;;;;5076780;28;20481;-77
2021/10/29 05:48:19;;;;;;;4.80;1.50;;;14.10;90.90;;;;;;5077060;28;20036;-76
2021/10/29 05:50:49;;;;;;;1.90;1.10;;;13.90;91.00;;;;;;5076973;28;20384;-78
2021/10/29 05:55:54;;;;;;;2.13;1.15;;;13.70;90.90;;;;;;5074032;28;20562;-77
2021/10/29 05:58:20;;;;;;;1.85;0.93;;;13.80;90.80;;;;;;5056966;28;20064;-78
2021/10/29 06:00:46;;;;;;;2.33;1.20;;;13.80;90.90;;;;;;5077343;28;20024;-77
2021/10/29 06:03:12;;;;;;;2.65;1.20;;;13.80;90.60;;;;;;5076875;28;20512;-78
2021/10/29 06:05:38;;;;;;;2.05;0.90;;;13.80;90.30;;;;;;5076305;28;20494;-77
2021/10/29 06:08:04;;;;;;;4.13;1.20;;;13.80;90.40;;;;;;5074952;28;20029;-77
2021/10/29 06:10:30;;;;;;;2.55;0.93;;;13.80;90.40;;;;;;5074449;28;20029;-77
2021/10/29 06:12:56;;;;;;;3.10;1.17;;;13.80;90.20;;;;;;5071744;28;20097;-77
2021/10/29 06:15:22;;;;;;;1.90;0.88;;;13.80;90.20;;;;;;5061457;28;20063;-77
2021/10/29 06:17:48;;;;;;;4.22;1.35;;;13.80;90.20;;;;;;5076907;28;20012;-77
2021/10/29 06:20:14;;;;;;;3.90;1.70;;;13.70;90.00;;;;;;5075806;28;20355;-78
2021/10/29 06:22:52;;;;;;;3.75;1.35;;;13.70;89.90;;;;;;5072852;28;20116;-77
2021/10/29 06:25:20;;;;;;;2.50;1.40;;;13.80;90.10;;;;;;5069845;28;20020;-77
2021/10/29 06:30:36;;;;;;;2.80;0.95;;;13.70;89.40;;;;;;5076920;28;20117;-78
2021/10/29 06:33:02;;;;;;;3.33;1.08;;;13.70;90.00;;;;;;5076743;28;20170;-78
2021/10/29 06:35:29;;;;;;;4.65;1.00;;;13.70;90.00;;;;;;5076401;28;20540;-79
2021/10/29 06:37:57;;;;;;;3.30;1.40;;;13.60;89.80;;;;;;5073444;28;20362;-80
2021/10/29 06:40:24;;;;;;;5.97;1.17;;;13.70;90.30;;;;;;5073955;28;20028;-77
2021/10/29 06:42:53;;;;;;;4.35;1.40;;;13.70;90.30;;;;;;5079791;28;20050;-77
2021/10/29 07:40:16;;;;;;;7.53;1.70;;;14.60;90.00;;;;;;5057985;28;20039;-79
2021/10/29 07:45:11;;;;;;;7.38;1.42;;;14.90;89.40;;;;;;5089655;28;20032;-76
2021/10/29 07:47:38;;;;;;;8.02;1.48;;;15.00;89.10;;;;;;5069733;28;20035;-76
2021/10/29 07:50:06;;;;;;;7.35;1.50;;;15.10;88.50;;;;;;5077317;28;20028;-77
2021/10/29 07:52:32;;;;;;;6.63;1.10;;;15.30;89.60;;;;;;5074216;28;20024;-74
2021/10/29 07:54:58;;;;;;;7.85;1.30;;;15.60;88.80;;;;;;5088191;28;20086;-76
2021/10/29 07:57:24;;;;;;;5.95;1.70;;;15.60;87.10;;;;;;5078936;28;20031;-76
2021/10/29 07:59:51;;;;;;;6.30;1.52;;;15.40;86.70;;;;;;5079076;28;20035;-76
2021/10/29 08:02:18;;;;;;;8.48;1.67;;;15.30;87.40;;;;;;5078720;28;20400;-77
2021/10/29 08:04:44;;;;;;;7.38;1.30;;;15.30;87.30;;;;;;5074197;28;20075;-77
2021/10/29 08:07:11;;;;;;;7.72;1.38;;;15.20;86.70;;;;;;5078150;28;20055;-77
2021/10/29 08:09:37;;;;;;;4.05;1.10;;;15.10;88.00;;;;;;5078524;28;20028;-76
2021/10/29 08:12:03;;;;;;;7.70;1.20;;;15.10;87.40;;;;;;5078905;28;20025;-76
2021/10/29 08:14:29;;;;;;;6.68;1.00;;;15.20;87.00;;;;;;5078604;28;20099;-77
2021/10/29 08:16:55;;;;;;;4.65;1.45;;;15.20;86.60;;;;;;5075057;28;20098;-76
2021/10/29 08:19:29;;;;;;;6.60;1.20;;;15.20;87.10;;;;;;5058604;28;20536;-76
2021/10/29 08:21:54;;;;;;;7.10;1.77;;;15.20;86.50;;;;;;5088966;28;20070;-77
2021/10/29 08:24:21;;;;;;;8.55;1.50;;;15.40;88.40;;;;;;5085457;28;20032;-78
2021/10/29 08:26:47;;;;;;;8.60;1.40;;;15.60;86.80;;;;;;5085557;28;20028;-78
2021/10/29 08:29:13;;;;;;;5.95;1.20;;;15.60;85.60;;;;;;5076922;28;20158;-78
2021/10/29 08:31:38;;;;;;;5.80;1.30;;;15.70;85.40;;;;;;5056603;28;20039;-78
2021/10/29 08:34:04;;;;;;;6.43;1.20;;;16.20;87.50;;;;;;5077690;28;20016;-78
2021/10/29 08:36:32;;;;;;;7.63;1.17;;;16.60;85.30;;;;;;5078042;28;20020;-78
2021/10/29 08:38:57;;;;;;;5.97;1.17;;;17.00;86.90;;;;;;5078213;28;20337;-80
2021/10/29 08:41:26;;;;;;;6.07;1.13;;;18.60;87.20;;;;;;5060145;28;20615;-79
2021/10/29 08:43:52;;;;;;;8.00;1.75;;;19.60;85.40;;;;;;5074753;28;20040;-78
2021/10/29 08:46:18;;;;;;;7.65;1.17;;;20.50;79.80;;;;;;5088704;28;20090;-78
2021/10/29 08:48:45;;;;;;;5.22;1.00;;;19.60;73.50;;;;;;5060535;28;20032;-78
2021/10/29 08:51:11;;;;;;;5.68;2.00;;;18.90;74.10;;;;;;5078068;28;20055;-77
2021/10/29 08:53:37;;;;;;;4.93;1.30;;;18.70;76.90;;;;;;5059666;28;20032;-79
2021/10/29 08:56:05;;;;;;;5.57;1.63;;;19.10;78.00;;;;;;5075657;28;20116;-79
2021/10/29 08:58:34;;;;;;;5.90;1.13;;;19.10;75.80;;;;;;5075136;28;20044;-78
2021/10/29 09:01:08;;;;;;;3.83;0.95;;;20.40;81.50;;;;;;5076666;28;20028;-80
2021/10/29 09:03:43;;;;;;;6.18;1.08;;;22.30;78.70;;;;;;5077527;28;20584;-79
2021/10/29 09:34:11;;;;;;;4.00;0.60;;;18.70;69.30;;;;;;5087078;28;20046;-79
2021/10/29 09:36:38;;;;;;;5.18;0.70;;;18.30;69.60;;;;;;5083852;28;20028;-78
2021/10/29 09:39:10;;;;;;;2.00;0.73;;;18.10;70.60;;;;;;5082373;28;20029;-79
2021/10/29 09:41:37;;;;;;;3.50;0.65;;;18.00;71.00;;;;;;5075690;28;20534;-78
2021/10/29 09:44:18;;;;;;;2.15;0.63;;;17.80;71.30;;;;;;5073835;28;20044;-78
2021/10/29 09:46:56;;;;;;;4.00;1.17;;;17.80;72.20;;;;;;5054538;28;20028;-78
2021/10/29 09:55:10;;;;;;;5.35;1.30;;;17.40;72.40;;;;;;5086945;28;20039;-79
2021/10/29 09:57:36;;;;;;;4.80;0.90;;;17.40;72.50;;;;;;5058724;28;20048;-78
2021/10/29 10:00:09;;;;;;;3.83;0.82;;;17.40;72.40;;;;;;5079236;28;20036;-78
2021/10/29 10:02:39;;;;;;;3.53;0.90;;;17.50;72.50;;;;;;5087298;28;20115;-78
2021/10/29 10:05:06;;;;;;;2.97;0.80;;;17.70;73.30;;;;;;5078411;28;20524;-79
2021/10/29 10:07:34;;;;;;;5.75;1.00;;;17.80;71.50;;;;;;5074148;28;20028;-78
2021/10/29 10:10:01;;;;;;;2.42;0.50;;;17.90;72.70;;;;;;5075938;28;20103;-79
2021/10/29 10:12:29;;;;;;;2.33;0.70;;;18.10;72.80;;;;;;5076345;28;20028;-78
2021/10/29 10:14:56;;;;;;;3.65;0.50;;;18.30;71.50;;;;;;5059058;28;20024;-79
2021/10/29 10:17:23;;;;;;;2.38;0.60;;;18.50;71.20;;;;;;5087908;28;20028;-78
2021/10/29 10:19:50;;;;;;;3.50;0.60;;;19.30;73.20;;;;;;5072021;28;20045;-79
2021/10/29 10:22:19;;;;;;;1.83;0.63;;;20.90;70.80;;;;;;5075866;28;20060;-79
2021/10/29 10:24:58;;;;;;;2.35;0.70;;;20.80;65.20;;;;;;5085126;28;20118;-79
2021/10/29 10:27:44;;;;;;;2.50;0.52;;;20.80;66.70;;;;;;5078839;28;20043;-79
2021/10/29 10:30:24;;;;;;;1.80;0.52;;;21.10;64.70;;;;;;5076442;28;20029;-79
2021/10/29 10:46:50;;;;;;;4.72;0.93;;;21.30;63.20;;;;;;5087557;28;20039;-79
2021/10/29 10:49:38;;;;;;;2.92;0.90;;;23.60;69.20;;;;;;5088992;28;20020;-79
2021/10/29 10:52:19;;;;;;;2.15;0.77;;;26.80;63.30;;;;;;5066537;28;20507;-79
2021/10/29 10:54:49;;;;;;;2.78;0.70;;;28.70;53.80;;;;;;5089230;28;20095;-79
2021/10/29 11:00:16;;;;;;;3.65;1.27;;;29.70;45.90;;;;;;5086619;28;20138;-79
2021/10/29 11:10:17;;;;;;;2.22;0.85;;;29.70;41.20;;;;;;5091074;28;20034;-73
2021/10/29 11:12:43;;;;;;;2.35;0.75;;;29.30;43.30;;;;;;5087541;28;20050;-72
2021/10/29 11:15:23;;;;;;;3.35;0.75;;;29.70;43.20;;;;;;5090409;28;20032;-73
2021/10/29 11:18:02;;;;;;;2.17;0.73;;;30.40;43.10;;;;;;5091874;28;20488;-72
2021/10/29 11:20:49;;;;;;;2.70;0.50;;;30.70;42.40;;;;;;5091055;28;20050;-72
2021/10/29 11:23:29;;;;;;;2.22;0.70;;;28.50;37.40;;;;;;5089360;28;20035;-74
2021/10/29 11:26:01;;;;;;;2.80;0.88;;;26.50;45.00;;;;;;5091277;28;20020;-72
2021/10/29 11:28:35;;;;;;;2.67;0.60;;;25.80;41.00;;;;;;5091701;28;20081;-72
2021/10/29 11:31:05;;;;;;;3.55;0.70;;;25.10;43.30;;;;;;5091593;28;20020;-72
2021/10/29 11:33:32;;;;;;;2.00;0.60;;;24.50;47.00;;;;;;5091867;28;20051;-73
2021/10/29 11:36:01;;;;;;;2.58;0.57;;;24.50;43.80;;;;;;5087760;28;20206;-72
2021/10/29 11:38:30;;;;;;;4.05;0.80;;;23.40;45.10;;;;;;5089497;28;20153;-72
2021/10/29 11:40:56;;;;;;;2.72;0.70;;;24.50;50.70;;;;;;5075746;28;20497;-73
2021/10/29 11:43:31;;;;;;;2.70;0.73;;;24.60;45.20;;;;;;5071984;28;20127;-73
2021/10/29 11:46:04;;;;;;;2.75;0.70;;;24.50;47.50;;;;;;5090789;28;20055;-72
2021/10/29 11:48:30;;;;;;;3.00;0.68;;;25.50;49.20;;;;;;5088998;28;20024;-73
2021/10/29 11:51:10;;;;;;;2.40;0.60;;;26.30;45.00;;;;;;5087120;28;20032;-72
2021/10/29 11:53:44;;;;;;;2.47;0.50;;;27.20;47.30;;;;;;5087153;28;20028;-72
2021/10/29 11:56:23;;;;;;;2.13;0.60;;;26.70;39.30;;;;;;5088962;28;20020;-72
2021/10/29 12:09:46;;;;;;;2.60;0.80;;;23.40;44.60;;;;;;5008031;28;20049;-73
2021/10/29 12:12:13;;;;;;;3.22;0.70;;;22.80;45.70;;;;;;5009649;28;20041;-73
2021/10/29 12:14:41;;;;;;;3.83;0.60;;;22.40;47.20;;;;;;5012180;28;20053;-72
2021/10/29 12:17:30;;;;;;;3.17;0.75;;;22.10;48.00;;;;;;5012286;28;20854;-72
2021/10/29 12:20:05;;;;;;;2.25;0.57;;;21.80;48.70;;;;;;5012017;28;20018;-73
2021/10/29 12:22:46;;;;;;;2.70;0.68;;;21.70;49.10;;;;;;5009014;28;20588;-72
2021/10/29 12:30:40;;;;;;;2.80;0.80;;;21.10;50.80;;;;;;5012504;28;20061;-73
2021/10/29 13:03:09;;;;;;;2.50;0.70;;;24.40;42.80;;;;;;5086790;28;20050;-72
2021/10/29 13:05:35;;;;;;;4.05;0.70;;;24.20;43.00;;;;;;5088882;28;20057;-72
2021/10/29 13:08:17;;;;;;;2.38;0.88;;;23.80;42.70;;;;;;5070682;28;20038;-72
2021/10/29 13:10:43;;;;;;;4.73;0.90;;;23.40;45.10;;;;;;5070886;28;20027;-72
2021/10/29 13:13:16;;;;;;;2.88;0.85;;;23.50;44.40;;;;;;5091566;28;20506;-71
2021/10/29 13:15:42;;;;;;;3.85;1.05;;;23.70;44.50;;;;;;5089219;28;20016;-72
2021/10/29 13:18:13;;;;;;;3.92;0.80;;;23.90;43.50;;;;;;5089047;28;20081;-72
2021/10/29 13:36:15;;;;;;;1.75;0.70;;;22.50;43.20;;;;;;5085763;28;20509;-72
2021/10/29 13:52:35;;;;;;;2.33;0.60;;;20.70;45.30;;;;;;5025670;28;20468;-71
2021/10/29 13:55:12;;;;;;;3.05;0.60;;;20.50;46.70;;;;;;5005111;28;20073;-72
2021/10/29 14:30:02;;;;;;;2.15;0.50;;;19.40;51.30;;;;;;5089036;28;20035;-73
2021/10/29 14:32:38;;;;;;;2.85;0.50;;;19.30;51.70;;;;;;5084355;28;20496;-72
2021/10/29 14:35:04;;;;;;;2.38;0.65;;;19.20;52.30;;;;;;5079374;28;20032;-72
2021/10/29 14:42:39;;;;;;;5.57;1.10;;;19.20;52.10;;;;;;5084442;28;20042;-72
2021/10/29 14:50:15;;;;;;;2.05;0.65;;;19.30;53.10;;;;;;5080568;28;20495;-73
2021/10/29 15:33:12;;;;;;;5.53;0.98;;;18.20;54.30;;;;;;5015336;28;20075;-71
2021/10/29 15:46:19;;;;;;;5.60;1.38;;;18.00;55.20;;;;;;5015995;28;20092;-70
2021/10/29 15:51:11;;;;;;;4.15;1.00;;;17.90;55.40;;;;;;5015284;28;20476;-70
2021/10/29 15:53:37;;;;;;;5.40;1.20;;;17.80;55.70;;;;;;5015415;28;20524;-71
2021/10/29 15:56:29;;;;;;;4.05;0.70;;;17.80;55.90;;;;;;5013068;28;20474;-70
2021/10/29 15:59:16;;;;;;;4.25;0.90;;;17.60;56.10;;;;;;5032879;28;20036;-70
2021/10/29 16:01:51;;;;;;;4.03;0.95;;;17.60;56.30;;;;;;5080752;28;20058;-71
2021/10/29 16:17:58;;;;;;;4.85;0.80;;;17.10;56.40;;;;;;5086318;28;20039;-72
2021/10/29 16:20:23;;;;;;;4.93;0.70;;;17.10;56.70;;;;;;5084456;28;20024;-72
2021/10/29 16:22:50;;;;;;;2.92;0.93;;;17.00;56.70;;;;;;5091040;28;20035;-72
2021/10/29 16:25:22;;;;;;;2.65;0.80;;;17.00;57.00;;;;;;5089001;28;20047;-70
2021/10/29 16:27:57;;;;;;;4.60;1.02;;;17.00;57.00;;;;;;5088743;28;20035;-70
2021/10/29 16:30:26;;;;;;;3.55;0.90;;;16.90;57.10;;;;;;5080857;28;20051;-69
2021/10/29 16:35:23;;;;;;;3.83;0.98;;;16.80;57.10;;;;;;5078423;28;20059;-71
2021/10/29 16:37:49;;;;;;;2.83;0.82;;;16.80;57.20;;;;;;5073911;28;20043;-71
2021/10/29 16:40:16;;;;;;;3.55;0.90;;;16.70;57.40;;;;;;5077632;28;20024;-71
2021/10/29 16:42:43;;;;;;;4.00;1.23;;;16.60;57.50;;;;;;5078012;28;20044;-71
2021/10/29 16:45:10;;;;;;;5.75;1.42;;;16.60;57.50;;;;;;5077791;28;20052;-72
2021/10/29 16:47:36;;;;;;;4.13;1.48;;;16.50;57.60;;;;;;5078103;28;20028;-71
2021/10/29 16:50:05;;;;;;;5.97;1.33;;;16.40;57.70;;;;;;5075216;28;20036;-71
2021/10/29 16:52:31;;;;;;;5.70;1.75;;;16.40;57.90;;;;;;5075495;28;20016;-71
2021/10/29 16:54:57;;;;;;;4.65;1.55;;;16.40;58.00;;;;;;5077539;28;20032;-71
2021/10/29 16:57:23;;;;;;;4.53;1.83;;;16.30;58.10;;;;;;5078099;28;20033;-71
2021/10/29 16:59:48;;;;;;;5.30;1.50;;;16.30;58.40;;;;;;5077619;28;20024;-71
2021/10/29 17:02:15;;;;;;;3.22;1.33;;;16.30;58.30;;;;;;5059382;28;20031;-70
2021/10/29 17:04:41;;;;;;;6.20;1.80;;;16.30;58.50;;;;;;5074004;28;20065;-71
2021/10/29 17:07:07;;;;;;;9.15;4.03;;;16.20;58.40;;;;;;5077348;28;20389;-70
2021/10/29 17:09:34;;;;;;;11.40;5.45;;;16.10;58.80;;;;;;5077816;28;20036;-71
2021/10/29 17:12:00;;;;;;;12.23;5.90;;;16.10;59.00;;;;;;5077849;28;20082;-71
2021/10/29 17:14:27;;;;;;;11.40;5.88;;;16.10;59.10;;;;;;5077396;28;20435;-71
2021/10/29 17:16:53;;;;;;;11.30;5.32;;;16.00;59.40;;;;;;5073593;28;20065;-71
2021/10/29 17:19:19;;;;;;;11.45;5.00;;;15.90;59.40;;;;;;5076462;28;20029;-71
2021/10/29 17:21:44;;;;;;;10.05;4.90;;;15.90;59.60;;;;;;5086059;28;20085;-70
2021/10/29 17:24:10;;;;;;;7.93;4.03;;;15.90;59.70;;;;;;5085291;28;20507;-71
2021/10/29 17:26:36;;;;;;;8.55;3.80;;;15.80;59.60;;;;;;5086922;28;20027;-71
2021/10/29 17:29:02;;;;;;;7.30;3.22;;;15.80;60.30;;;;;;5074435;28;20032;-71
2021/10/29 17:31:29;;;;;;;7.70;3.28;;;15.80;60.40;;;;;;5074957;28;20031;-71
2021/10/29 17:33:55;;;;;;;7.60;2.65;;;15.70;60.70;;;;;;5077177;28;20462;-71
2021/10/29 17:36:20;;;;;;;7.03;2.40;;;15.60;61.10;;;;;;5077364;28;20029;-72
2021/10/29 17:38:46;;;;;;;6.95;2.30;;;15.50;61.00;;;;;;5077228;28;20472;-71
2021/10/29 17:41:12;;;;;;;5.15;2.50;;;15.50;61.30;;;;;;5075851;28;20489;-71
2021/10/29 17:43:38;;;;;;;8.07;3.13;;;15.50;61.40;;;;;;5073520;28;20176;-71
2021/10/29 17:46:05;;;;;;;7.82;2.40;;;15.40;61.60;;;;;;5076604;28;20024;-71
2021/10/29 17:48:31;;;;;;;7.00;3.00;;;15.40;61.60;;;;;;5077300;28;20032;-71
2021/10/29 17:50:57;;;;;;;8.63;3.40;;;15.30;61.60;;;;;;5077037;28;20021;-71
2021/10/29 17:53:24;;;;;;;8.40;2.75;;;15.30;61.80;;;;;;5077043;28;20012;-70
2021/10/29 17:55:50;;;;;;;7.78;3.22;;;15.30;62.30;;;;;;5072828;28;20064;-71
2021/10/29 17:58:16;;;;;;;9.57;3.03;;;15.20;62.30;;;;;;5076079;28;20078;-71
2021/10/29 18:00:45;;;;;;;8.25;2.78;;;15.10;62.50;;;;;;5076979;28;20060;-71
2021/10/29 18:03:11;;;;;;;7.03;2.88;;;15.10;62.40;;;;;;5076187;28;20177;-72
2021/10/29 18:05:37;;;;;;;10.98;2.63;;;15.00;62.30;;;;;;5076931;28;20505;-71